createdAt,value
2019-04-22T00:03:49.733Z,7.91
2019-04-22T00:09:15.969Z,7.93
2019-04-22T00:14:14.997Z,7.81
2019-04-22T00:19:38.868Z,7.61
2019-04-22T00:24:38.792Z,7.55
2019-04-22T00:30:01.779Z,7.54
2019-04-22T00:34:53.694Z,7.60
2019-04-22T00:40:07.308Z,7.49
2019-04-22T00:45:19.418Z,7.32
2019-04-22T00:55:43.725Z,7.17
2019-04-22T01:00:44.451Z,7.25
2019-04-22T01:05:55.402Z,7.11
2019-04-22T01:11:11.267Z,7.11
2019-04-22T01:16:17.515Z,6.89
2019-04-22T01:21:28.903Z,6.93
2019-04-22T01:26:30.036Z,6.87
2019-04-22T01:31:23.976Z,6.85
2019-04-22T01:36:48.667Z,6.89
2019-04-22T01:47:21.401Z,6.67
2019-04-22T01:52:20.438Z,6.56
2019-04-22T01:57:31.737Z,6.36
2019-04-22T02:02:44.088Z,6.18
2019-04-22T02:07:49.046Z,6.18
2019-04-22T02:13:03.120Z,6.07
2019-04-22T02:18:18.099Z,6.05
2019-04-22T02:28:40.085Z,6.01
2019-04-22T02:39:05.732Z,6.03
2019-04-22T02:44:13.873Z,6.00
2019-04-22T02:59:44.937Z,5.86
2019-04-22T03:04:56.916Z,5.82
2019-04-22T03:09:57.787Z,5.87
2019-04-22T03:15:01.442Z,5.75
2019-04-22T03:20:14.226Z,5.55
2019-04-22T03:25:51.511Z,5.66
2019-04-22T03:35:55.629Z,5.52
2019-04-22T03:41:22.165Z,5.56
2019-04-22T03:46:03.828Z,5.54
2019-04-22T03:51:16.398Z,5.40
2019-04-22T03:56:59.129Z,5.30
2019-04-22T04:01:36.653Z,5.42
2019-04-22T04:06:52.525Z,5.23
2019-04-22T04:22:18.851Z,5.24
2019-04-22T04:32:39.373Z,5.09
2019-04-22T04:42:46.272Z,5.28
2019-04-22T04:48:01.016Z,5.27
2019-04-22T05:08:39.089Z,5.56
2019-04-22T05:24:00.035Z,5.74
2019-04-22T05:29:05.587Z,5.79
2019-04-22T05:34:08.473Z,6.03
2019-04-22T05:39:17.226Z,6.06
2019-04-22T05:44:32.563Z,6.28
2019-04-22T05:49:35.088Z,6.50
2019-04-22T05:54:47.119Z,6.63
2019-04-22T06:05:07.756Z,7.03
2019-04-22T06:10:21.416Z,7.32
2019-04-22T06:15:23.356Z,7.63
2019-04-22T06:20:38.389Z,7.87
2019-04-22T06:25:57.553Z,8.18
2019-04-22T06:30:57.455Z,8.57
2019-04-22T06:36:03.693Z,9.10
2019-04-22T06:41:14.027Z,9.41
2019-04-22T06:46:25.696Z,9.71
2019-04-22T06:51:35.652Z,10.12
2019-04-22T06:56:42.659Z,10.59
2019-04-22T07:01:59.380Z,11.13
2019-04-22T07:07:03.357Z,11.74
2019-04-22T07:12:12.086Z,12.16
2019-04-22T07:17:24.630Z,12.57
2019-04-22T07:22:38.949Z,13.01
2019-04-22T07:27:40.523Z,13.24
2019-04-22T07:33:04.569Z,13.46
2019-04-22T07:38:00.311Z,13.85
2019-04-22T07:43:13.753Z,14.02
2019-04-22T07:48:26.533Z,14.34
2019-04-22T07:53:26.186Z,15.00
2019-04-22T07:58:35.987Z,15.27
2019-04-22T08:03:51.608Z,15.03
2019-04-22T08:08:58.507Z,15.12
2019-04-22T08:13:58.745Z,15.08
2019-04-22T08:19:16.975Z,15.14
2019-04-22T08:24:22.775Z,15.12
2019-04-22T08:29:37.104Z,15.20
2019-04-22T08:34:40.818Z,15.38
2019-04-22T08:39:49.994Z,15.62
2019-04-22T08:50:08.791Z,16.20
2019-04-22T08:55:18.975Z,16.00
2019-04-22T09:00:32.239Z,16.15
2019-04-22T09:05:53.529Z,16.61
2019-04-22T09:10:44.692Z,16.58
2019-04-22T09:15:49.122Z,17.19
2019-04-22T09:26:16.633Z,17.71
2019-04-22T09:31:19.607Z,18.40
2019-04-22T09:41:41.169Z,22.83
2019-04-22T09:46:47.109Z,27.38
2019-04-22T09:51:58.221Z,26.89
2019-04-22T09:57:09.546Z,28.31
2019-04-22T10:07:30.455Z,29.31
2019-04-22T10:12:36.691Z,28.11
2019-04-22T10:17:47.298Z,28.62
2019-04-22T10:22:54.766Z,30.40
2019-04-22T10:28:09.205Z,26.46
2019-04-22T10:33:05.780Z,28.98
2019-04-22T10:37:56.556Z,28.50
2019-04-22T10:43:05.290Z,29.57
2019-04-22T10:48:14.562Z,31.30
2019-04-22T10:53:23.719Z,30.32
2019-04-22T10:58:32.752Z,30.39
2019-04-22T11:03:41.535Z,30.50
2019-04-22T11:08:54.416Z,30.04
2019-04-22T11:13:58.195Z,29.02
2019-04-22T11:19:05.755Z,27.53
2019-04-22T11:24:14.760Z,29.17
2019-04-22T11:29:23.766Z,31.41
2019-04-22T11:34:31.342Z,31.89
2019-04-22T11:39:38.934Z,32.34
2019-04-22T11:44:47.531Z,34.50
2019-04-22T11:49:55.179Z,32.56
2019-04-22T11:55:04.545Z,30.90
2019-04-22T12:00:14.711Z,31.88
2019-04-22T12:05:23.703Z,30.12
2019-04-22T12:10:40.245Z,33.55
2019-04-22T12:15:40.865Z,30.82
2019-04-22T12:20:48.369Z,30.35
2019-04-22T12:26:02.047Z,29.99
2019-04-22T12:31:05.805Z,30.03
2019-04-22T12:36:14.758Z,27.93
2019-04-22T12:41:23.604Z,33.32
2019-04-22T12:46:32.366Z,32.16
2019-04-22T12:51:40.980Z,31.84
2019-04-22T12:56:48.562Z,30.61
2019-04-22T13:01:56.952Z,28.28
2019-04-22T13:07:06.159Z,29.99
2019-04-22T13:12:14.834Z,28.44
2019-04-22T13:17:23.137Z,30.11
2019-04-22T13:22:30.730Z,29.72
2019-04-22T13:27:39.272Z,27.94
2019-04-22T13:32:47.177Z,31.01
2019-04-22T13:37:54.974Z,30.87
2019-04-22T13:43:02.789Z,32.01
2019-04-22T13:48:29.664Z,29.92
2019-04-22T13:58:40.977Z,28.17
2019-04-22T14:04:00.735Z,28.36
2019-04-22T14:09:11.555Z,28.87
2019-04-22T14:14:20.033Z,29.60
2019-04-22T14:19:27.903Z,29.38
2019-04-22T14:24:36.444Z,27.13
2019-04-22T14:29:43.981Z,29.30
2019-04-22T14:34:51.378Z,27.20
2019-04-22T14:40:00.114Z,28.26
2019-04-22T14:46:00.274Z,27.54
2019-04-22T14:50:40.267Z,26.23
2019-04-22T14:55:31.453Z,25.47
2019-04-22T15:00:37.952Z,21.80
2019-04-22T15:05:46.237Z,20.14
2019-04-22T15:10:54.087Z,20.71
2019-04-22T15:16:20.200Z,19.73
2019-04-22T15:21:28.915Z,19.49
2019-04-22T15:26:36.362Z,19.89
2019-04-22T15:31:45.014Z,20.17
2019-04-22T15:36:53.786Z,18.17
2019-04-22T15:42:11.765Z,18.63
2019-04-22T15:47:11.125Z,17.14
2019-04-22T15:52:18.989Z,16.67
2019-04-22T15:57:26.635Z,16.29
2019-04-22T16:02:34.142Z,15.79
2019-04-22T16:07:42.244Z,15.70
2019-04-22T16:12:57.613Z,16.15
2019-04-22T16:18:01.588Z,15.54
2019-04-22T16:23:42.388Z,15.47
2019-04-22T16:28:52.763Z,15.17
2019-04-22T16:33:59.178Z,15.25
2019-04-22T16:39:13.230Z,14.97
2019-04-22T16:44:22.891Z,14.97
2019-04-22T16:49:31.873Z,14.63
2019-04-22T16:54:40.045Z,14.49
2019-04-22T16:59:48.977Z,14.79
2019-04-22T17:05:05.487Z,14.64
2019-04-22T17:10:13.769Z,14.78
2019-04-22T17:15:22.556Z,14.44
2019-04-22T17:20:31.221Z,14.56
2019-04-22T17:25:38.815Z,14.66
2019-04-22T17:30:47.819Z,14.54
2019-04-22T17:35:55.105Z,14.24
2019-04-22T17:41:17.209Z,14.20
2019-04-22T17:46:33.689Z,14.23
2019-04-22T17:52:15.689Z,14.33
2019-04-22T17:57:19.308Z,14.44
2019-04-22T18:02:22.580Z,14.16
2019-04-22T18:07:35.494Z,14.09
2019-04-22T18:12:53.161Z,14.11
2019-04-22T18:17:55.596Z,14.03
2019-04-22T18:22:54.300Z,13.96
2019-04-22T18:33:21.173Z,13.59
2019-04-22T18:38:42.389Z,13.36
2019-04-22T18:43:42.293Z,13.10
2019-04-22T18:48:45.874Z,12.94
2019-04-22T18:54:10.351Z,12.81
2019-04-22T18:59:05.092Z,12.56
2019-04-22T19:04:11.633Z,12.30
2019-04-22T19:09:43.885Z,12.08
2019-04-22T19:14:55.211Z,11.89
2019-04-22T19:20:05.430Z,11.65
2019-04-22T19:25:04.127Z,11.54
2019-04-22T19:30:15.957Z,11.41
2019-04-22T19:35:21.339Z,11.34
2019-04-22T19:40:47.824Z,11.09
2019-04-22T19:45:45.999Z,11.12
2019-04-22T19:51:05.850Z,11.00
2019-04-22T19:56:01.509Z,10.88
2019-04-22T20:01:39.001Z,10.79
2019-04-22T20:06:47.598Z,10.72
2019-04-22T20:11:57.608Z,10.75
2019-04-22T20:17:00.468Z,10.58
2019-04-22T20:22:12.883Z,10.48
2019-04-22T20:27:34.380Z,10.46
2019-04-22T20:32:34.116Z,10.35
2019-04-22T20:37:45.761Z,10.22
2019-04-22T20:43:03.528Z,10.14
2019-04-22T20:47:53.841Z,10.15
2019-04-22T20:53:21.374Z,10.04
2019-04-22T20:58:21.137Z,9.87
2019-04-22T21:03:22.377Z,9.78
2019-04-22T21:08:36.993Z,9.68
2019-04-22T21:13:41.031Z,9.56
2019-04-22T21:18:47.370Z,9.44
2019-04-22T21:23:57.150Z,9.50
2019-04-22T21:29:13.329Z,9.42
2019-04-22T21:34:20.619Z,9.22
2019-04-22T21:39:33.784Z,9.15
2019-04-22T21:44:42.665Z,9.02
2019-04-22T21:50:09.854Z,8.99
2019-04-22T21:55:08.712Z,8.87
2019-04-22T22:00:17.621Z,8.87
2019-04-22T22:05:14.356Z,8.74
2019-04-22T22:10:29.692Z,8.67
2019-04-22T22:15:36.870Z,8.64
2019-04-22T22:20:59.843Z,8.44
2019-04-22T22:25:53.790Z,8.54
2019-04-22T22:31:13.376Z,8.41
2019-04-22T22:36:13.650Z,8.37
2019-04-22T22:41:01.532Z,8.25
2019-04-22T22:46:17.940Z,8.34
2019-04-22T22:51:52.125Z,8.12
2019-04-22T22:56:55.672Z,7.98
2019-04-22T23:01:54.558Z,7.96
2019-04-22T23:07:11.156Z,7.86
2019-04-22T23:12:25.147Z,7.72
2019-04-22T23:17:09.993Z,7.70
2019-04-22T23:22:25.275Z,7.79
2019-04-22T23:28:02.320Z,7.72
2019-04-22T23:33:09.862Z,7.49
2019-04-22T23:38:20.691Z,7.45
2019-04-22T23:43:38.959Z,7.42
2019-04-22T23:48:35.795Z,7.47
2019-04-22T23:59:06.893Z,7.45
